SWA3176 KMDW-KSRQ
Flight info
| Callsign | SWA3176 |
|---|---|
| Flight time | N/A |
| Altitude | 36000 |
| Route | CMSKY CARYN CYBIL PXV HITMN ACORI BANGZ2 |
| Aircraft | B738/M-SADE2E3GIJ4RWZ/LB1D1 |
Departure
| Time | N/A |
|---|---|
| Airport | Chicago Midway International Airport (KMDW) |
Arrival
| Time | 2026-05-07 03:09 |
|---|---|
| Airport | Sarasota Bradenton International Airport (KSRQ) |
| Time | Latitude | Longitude | Altitude | Speed | Heading |
|---|---|---|---|---|---|
| 2026-05-07 02:37 | 30.01812 | -84.08798 | 36049 ft | 493 kts | 146° |
| 2026-05-07 02:37 | 29.96601 | -84.03669 | 36057 ft | 492 kts | 146° |
| 2026-05-07 02:38 | 29.91381 | -83.98538 | 36057 ft | 492 kts | 146° |
| 2026-05-07 02:38 | 29.86172 | -83.93422 | 36057 ft | 492 kts | 146° |
| 2026-05-07 02:39 | 29.80883 | -83.88461 | 36046 ft | 485 kts | 154° |
| 2026-05-07 02:39 | 29.75111 | -83.84674 | 36060 ft | 479 kts | 159° |
| 2026-05-07 02:40 | 29.72158 | -83.82880 | 35754 ft | 484 kts | 159° |
| 2026-05-07 02:40 | 29.69182 | -83.81058 | 35351 ft | 481 kts | 159° |
| 2026-05-07 02:40 | 29.66257 | -83.79229 | 34920 ft | 478 kts | 158° |
| 2026-05-07 02:40 | 29.63351 | -83.77381 | 34497 ft | 475 kts | 158° |
| 2026-05-07 02:41 | 29.60472 | -83.75534 | 34048 ft | 473 kts | 158° |
| 2026-05-07 02:41 | 29.57614 | -83.73692 | 33643 ft | 467 kts | 158° |
| 2026-05-07 02:41 | 29.54797 | -83.71874 | 33482 ft | 463 kts | 158° |
| 2026-05-07 02:41 | 29.51968 | -83.70057 | 33509 ft | 470 kts | 158° |
| 2026-05-07 02:42 | 29.46164 | -83.66343 | 33491 ft | 485 kts | 157° |
| 2026-05-07 02:42 | 29.40235 | -83.62542 | 33484 ft | 497 kts | 157° |
| 2026-05-07 02:43 | 29.34108 | -83.58697 | 33471 ft | 504 kts | 162° |
| 2026-05-07 02:43 | 29.30814 | -83.57317 | 33223 ft | 503 kts | 169° |
| 2026-05-07 02:43 | 29.27448 | -83.56217 | 32978 ft | 502 kts | 172° |
| 2026-05-07 02:44 | 29.24078 | -83.55191 | 32802 ft | 497 kts | 172° |
| 2026-05-07 02:44 | 29.20749 | -83.54167 | 32677 ft | 496 kts | 171° |
| 2026-05-07 02:44 | 29.17408 | -83.53100 | 32553 ft | 498 kts | 171° |
| 2026-05-07 02:44 | 29.14073 | -83.51998 | 32434 ft | 500 kts | 170° |
| 2026-05-07 02:45 | 29.10737 | -83.50872 | 32307 ft | 501 kts | 170° |
| 2026-05-07 02:45 | 29.07394 | -83.49735 | 32183 ft | 501 kts | 170° |
| 2026-05-07 02:45 | 29.04047 | -83.48597 | 32057 ft | 502 kts | 170° |
| 2026-05-07 02:45 | 29.00735 | -83.47478 | 31937 ft | 502 kts | 170° |
| 2026-05-07 02:46 | 28.97386 | -83.46335 | 31813 ft | 504 kts | 168° |
| 2026-05-07 02:46 | 28.94095 | -83.44898 | 31693 ft | 509 kts | 163° |
| 2026-05-07 02:46 | 28.90889 | -83.43250 | 31439 ft | 501 kts | 161° |
| 2026-05-07 02:46 | 28.87759 | -83.41543 | 30777 ft | 498 kts | 160° |
| 2026-05-07 02:47 | 28.84629 | -83.39825 | 29896 ft | 501 kts | 161° |
| 2026-05-07 02:47 | 28.81463 | -83.38118 | 28763 ft | 505 kts | 161° |
| 2026-05-07 02:47 | 28.78261 | -83.36426 | 27637 ft | 509 kts | 161° |
| 2026-05-07 02:47 | 28.75026 | -83.34744 | 26554 ft | 512 kts | 161° |
| 2026-05-07 02:48 | 28.71769 | -83.33064 | 25535 ft | 514 kts | 161° |
| 2026-05-07 02:48 | 28.68522 | -83.31395 | 24794 ft | 509 kts | 161° |
| 2026-05-07 02:48 | 28.65321 | -83.29748 | 24177 ft | 501 kts | 161° |
| 2026-05-07 02:48 | 28.62165 | -83.28124 | 23535 ft | 494 kts | 160° |
| 2026-05-07 02:49 | 28.59048 | -83.26523 | 22769 ft | 488 kts | 160° |
| 2026-05-07 02:49 | 28.56009 | -83.24963 | 22062 ft | 482 kts | 160° |
| 2026-05-07 02:49 | 28.52972 | -83.23405 | 21380 ft | 476 kts | 160° |
| 2026-05-07 02:49 | 28.49971 | -83.21866 | 20719 ft | 469 kts | 159° |
| 2026-05-07 02:50 | 28.47017 | -83.20352 | 20073 ft | 464 kts | 159° |
| 2026-05-07 02:50 | 28.44094 | -83.18855 | 19432 ft | 458 kts | 159° |
| 2026-05-07 02:50 | 28.41200 | -83.17373 | 18813 ft | 453 kts | 159° |
| 2026-05-07 02:50 | 28.38379 | -83.15931 | 17957 ft | 438 kts | 159° |
| 2026-05-07 02:51 | 28.35607 | -83.14542 | 16760 ft | 432 kts | 159° |
| 2026-05-07 02:51 | 28.32855 | -83.13174 | 15586 ft | 427 kts | 158° |
| 2026-05-07 02:51 | 28.30152 | -83.11830 | 14509 ft | 421 kts | 158° |
| 2026-05-07 02:51 | 28.27534 | -83.10400 | 13423 ft | 416 kts | 149° |
| 2026-05-07 02:52 | 28.25327 | -83.08317 | 12579 ft | 406 kts | 137° |
| 2026-05-07 02:52 | 28.23299 | -83.06201 | 12479 ft | 393 kts | 140° |
| 2026-05-07 02:52 | 28.21226 | -83.04152 | 12282 ft | 406 kts | 140° |
| 2026-05-07 02:52 | 28.19037 | -83.02109 | 12052 ft | 408 kts | 145° |
| 2026-05-07 02:53 | 28.16687 | -83.00329 | 11825 ft | 404 kts | 149° |
| 2026-05-07 02:53 | 28.14321 | -82.98642 | 11596 ft | 397 kts | 149° |
| 2026-05-07 02:53 | 28.12013 | -82.97019 | 11368 ft | 382 kts | 149° |
| 2026-05-07 02:53 | 28.09798 | -82.95457 | 11156 ft | 368 kts | 149° |
| 2026-05-07 02:54 | 28.07662 | -82.93938 | 10954 ft | 356 kts | 149° |
| 2026-05-07 02:54 | 28.05602 | -82.92466 | 10755 ft | 345 kts | 149° |
| 2026-05-07 02:54 | 28.03608 | -82.91036 | 10555 ft | 336 kts | 149° |
| 2026-05-07 02:54 | 28.01643 | -82.89625 | 10387 ft | 331 kts | 149° |
| 2026-05-07 02:55 | 27.99704 | -82.88230 | 10206 ft | 329 kts | 148° |
| 2026-05-07 02:55 | 27.97796 | -82.86857 | 10034 ft | 330 kts | 148° |
| 2026-05-07 02:55 | 27.95851 | -82.85458 | 9837 ft | 331 kts | 148° |
| 2026-05-07 02:55 | 27.93900 | -82.84056 | 9636 ft | 332 kts | 148° |
| 2026-05-07 02:56 | 27.91953 | -82.82656 | 9436 ft | 331 kts | 148° |
| 2026-05-07 02:56 | 27.90015 | -82.81262 | 9248 ft | 330 kts | 148° |
| 2026-05-07 02:56 | 27.88083 | -82.79872 | 9057 ft | 328 kts | 148° |
| 2026-05-07 02:56 | 27.86157 | -82.78488 | 8868 ft | 326 kts | 148° |
| 2026-05-07 02:57 | 27.84269 | -82.77133 | 8680 ft | 325 kts | 148° |
| 2026-05-07 02:57 | 27.82366 | -82.75768 | 8501 ft | 323 kts | 148° |
| 2026-05-07 02:57 | 27.80467 | -82.74404 | 8320 ft | 322 kts | 148° |
| 2026-05-07 02:57 | 27.78577 | -82.73049 | 8119 ft | 321 kts | 148° |
| 2026-05-07 02:58 | 27.76698 | -82.71702 | 7942 ft | 319 kts | 148° |
| 2026-05-07 02:58 | 27.74822 | -82.70357 | 7764 ft | 318 kts | 148° |
| 2026-05-07 02:58 | 27.72956 | -82.69020 | 7584 ft | 317 kts | 148° |
| 2026-05-07 02:58 | 27.71095 | -82.67685 | 7407 ft | 316 kts | 148° |
| 2026-05-07 02:59 | 27.69237 | -82.66355 | 7230 ft | 316 kts | 148° |
| 2026-05-07 02:59 | 27.67387 | -82.65031 | 7062 ft | 315 kts | 148° |
| 2026-05-07 02:59 | 27.65542 | -82.63712 | 6886 ft | 314 kts | 148° |
| 2026-05-07 02:59 | 27.63699 | -82.62394 | 6712 ft | 313 kts | 148° |
| 2026-05-07 03:00 | 27.61860 | -82.61079 | 6537 ft | 312 kts | 148° |
| 2026-05-07 03:00 | 27.60025 | -82.59768 | 6355 ft | 312 kts | 147° |
| 2026-05-07 03:00 | 27.58220 | -82.58479 | 6166 ft | 310 kts | 147° |
| 2026-05-07 03:00 | 27.56398 | -82.57178 | 5996 ft | 309 kts | 147° |
| 2026-05-07 03:01 | 27.54589 | -82.55886 | 5819 ft | 307 kts | 147° |
| 2026-05-07 03:01 | 27.52791 | -82.54601 | 5650 ft | 305 kts | 147° |
| 2026-05-07 03:01 | 27.51004 | -82.53326 | 5474 ft | 303 kts | 147° |
| 2026-05-07 03:01 | 27.49228 | -82.52062 | 5304 ft | 301 kts | 147° |
| 2026-05-07 03:02 | 27.47462 | -82.50805 | 5133 ft | 299 kts | 147° |
| 2026-05-07 03:02 | 27.45801 | -82.49415 | 4965 ft | 297 kts | 137° |
| 2026-05-07 03:02 | 27.44348 | -82.47771 | 4812 ft | 295 kts | 133° |
| 2026-05-07 03:02 | 27.42973 | -82.46095 | 4821 ft | 291 kts | 132° |
| 2026-05-07 03:03 | 27.41589 | -82.44406 | 4723 ft | 296 kts | 132° |
| 2026-05-07 03:03 | 27.40183 | -82.42713 | 4573 ft | 295 kts | 133° |
| 2026-05-07 03:03 | 27.38780 | -82.41042 | 4417 ft | 293 kts | 133° |
| 2026-05-07 03:03 | 27.37378 | -82.39387 | 4267 ft | 292 kts | 133° |
| 2026-05-07 03:04 | 27.35977 | -82.37742 | 4112 ft | 291 kts | 133° |
| 2026-05-07 03:04 | 27.34594 | -82.36123 | 3946 ft | 279 kts | 133° |
| 2026-05-07 03:04 | 27.33096 | -82.34805 | 3495 ft | 278 kts | 158° |
| 2026-05-07 03:04 | 27.31196 | -82.34547 | 3225 ft | 277 kts | 185° |
| 2026-05-07 03:05 | 27.29375 | -82.35181 | 3024 ft | 273 kts | 206° |
| 2026-05-07 03:05 | 27.27897 | -82.36438 | 2848 ft | 268 kts | 224° |
| 2026-05-07 03:05 | 27.26714 | -82.38033 | 2682 ft | 267 kts | 240° |
| 2026-05-07 03:05 | 27.26354 | -82.40050 | 2528 ft | 269 kts | 276° |
| 2026-05-07 03:06 | 27.27123 | -82.41941 | 2397 ft | 271 kts | 311° |
| 2026-05-07 03:06 | 27.28505 | -82.43383 | 2273 ft | 272 kts | 319° |
| 2026-05-07 03:06 | 27.29931 | -82.44781 | 2118 ft | 271 kts | 317° |
| 2026-05-07 03:06 | 27.31287 | -82.46192 | 2004 ft | 255 kts | 315° |
| 2026-05-07 03:07 | 27.32536 | -82.47480 | 1730 ft | 235 kts | 316° |
| 2026-05-07 03:07 | 27.33650 | -82.48713 | 1434 ft | 214 kts | 313° |
| 2026-05-07 03:07 | 27.34641 | -82.49864 | 1183 ft | 196 kts | 313° |
| 2026-05-07 03:07 | 27.35559 | -82.50922 | 955 ft | 182 kts | 313° |
| 2026-05-07 03:08 | 27.36405 | -82.51895 | 752 ft | 164 kts | 314° |
| 2026-05-07 03:08 | 27.37168 | -82.52778 | 530 ft | 151 kts | 314° |
| 2026-05-07 03:08 | 27.37884 | -82.53600 | 348 ft | 146 kts | 315° |
| 2026-05-07 03:08 | 27.38587 | -82.54414 | 142 ft | 145 kts | 314° |
| 2026-05-07 03:09 | 27.39278 | -82.55207 | 28 ft | 129 kts | 314° |
| 2026-05-07 03:09 | 27.39755 | -82.55754 | 28 ft | 67 kts | 315° |
| 2026-05-07 03:09 | 27.39944 | -82.55974 | 27 ft | 21 kts | 307° |
| 2026-05-07 03:09 | 27.39913 | -82.56048 | 29 ft | 19 kts | 191° |
| 2026-05-07 03:10 | 27.39806 | -82.55988 | 29 ft | 18 kts | 134° |
| 2026-05-07 03:10 | 27.39721 | -82.55889 | 30 ft | 17 kts | 135° |
| 2026-05-07 03:10 | 27.39610 | -82.55765 | 29 ft | 18 kts | 134° |
| 2026-05-07 03:10 | 27.39547 | -82.55692 | 29 ft | 21 kts | 134° |
| 2026-05-07 03:11 | 27.39433 | -82.55561 | 30 ft | 26 kts | 134° |
| 2026-05-07 03:11 | 27.39297 | -82.55406 | 29 ft | 24 kts | 141° |
| 2026-05-07 03:11 | 27.39164 | -82.55465 | 30 ft | 24 kts | 219° |
| 2026-05-07 03:11 | 27.39077 | -82.55469 | 28 ft | 11 kts | 115° |
| 2026-05-07 03:12 | 27.39037 | -82.55426 | 30 ft | 4 kts | 158° |
| 2026-05-07 03:12 | 27.39032 | -82.55424 | 30 ft | 0 kts | 158° |